Latest Coastal Weather Observations for Robe Airport

IDV60701

Issued at 2:05 am EDT Saturday 1 November 2014 (issued every 10 minutes, with the page automatically refreshed every 10 minutes)

About coastal observations | Map of coastal stations | Coastal observations for VIC | Marine services | Other Formats
Station Details ID: 026105 Name: ROBE AIRFIELD Lat: -37.18 Lon: 139.81 Height: 3.0 m
Data from the previous 72 hours. | See also: Recent months at Robe Airport
Date/Time
EDT
Temp

°C
Wind Pressure Rain
since 9am
mm
Weather Cloud Vis
km
Sea
Height
m
Swell
Dir
 
Speed
knots
Gust
knots
hPa Trend Height
m
Period
s
Dir
01/02:00am 13.6 WSW 9 16 1003.4 - 3.0 - - - - - - -
01/01:30am 13.6 WNW 8 11 1003.5 - 3.0 - - - - - - -
01/01:00am 13.3 W 8 12 1003.7 - 3.0 - - - - - - -
01/12:30am 13.0 W 7 10 1003.6 - 3.0 - - - - - - -
01/12:00am 12.9 W 6 10 1003.8 - 3.0 - - - - - - -
 
Date/Time
EDT
Temp

°C
Wind Pressure Rain
since 9am
mm
Weather Cloud Vis
km
Sea
Height
m
Swell
Dir
 
Speed
knots
Gust
knots
hPa Trend Height
m
Period
s
Dir
31/11:30pm 12.9 W 3 6 1003.6 - 3.0 - - - - - - -
31/11:00pm 12.9 WSW 1 4 1002.8 - 2.4 - - - - - - -
31/10:30pm 13.8 SW 5 8 1003.3 - 0.6 - - - - - - -
31/10:00pm 14.1 SW 10 16 1003.6 - 0.0 - - - - - - -
31/09:30pm 15.0 WSW 10 18 1003.6 - 0.0 - - - - - - -
31/09:00pm 14.8 SW 9 14 1002.1 - 0.0 - - - - - - -
31/08:30pm 15.1 SW 12 20 1001.9 - 0.0 - - - - - - -
31/08:00pm 15.7 SW 11 18 1001.7 - 0.0 - - - - - - -
31/07:30pm 16.1 WSW 13 21 1001.0 - 0.0 - - - - - - -
31/07:00pm 16.4 WSW 12 19 1000.1 - 0.0 - - - - - - -
31/06:30pm 16.9 WSW 14 22 999.6 - 0.0 - - - - - - -
31/06:00pm 18.1 WSW 14 22 999.4 - 0.0 - - - - - - -
31/05:30pm 19.6 W 11 18 999.1 - 0.0 - - - - - - -
31/05:00pm 22.7 W 13 24 999.2 - 0.0 - - - - - - -
31/04:30pm 24.9 W 13 20 999.2 - 0.0 - - - - - - -
31/04:00pm 25.3 WNW 13 21 999.5 - 0.0 - - - - - - -
31/03:30pm 25.2 NW 13 17 999.5 - 0.0 - - - - - - -
31/03:00pm 26.9 NW 15 23 1000.0 - 0.0 - - - - - - -
31/02:30pm 28.8 NNW 15 21 1000.4 - 0.0 - - - - - - -
31/02:00pm 29.9 NNW 16 23 1000.6 - 0.0 - - - - - - -
31/01:30pm 28.7 NNW 18 25 1001.1 - 0.0 - - - - - - -
31/01:00pm 28.5 N 23 30 1001.5 - 0.0 - - - - - - -
31/12:30pm 28.5 N 22 31 1001.9 - 0.0 - - - - - - -
31/12:26pm 28.7 N 22 33 1001.9 - 0.0 - - - - - - -
31/12:00pm 29.2 N 19 28 1002.3 - 0.0 - - - - - - -
31/11:30am 28.8 N 19 28 1002.7 - 0.0 - - - - - - -
31/11:00am 28.4 N 21 28 1003.1 - 0.0 - - - - - - -
31/10:50am 27.3 N 19 30 1003.2 - 0.0 - - - - - - -
31/10:30am 25.9 N 19 28 1003.6 - 0.0 - - - - - - -
31/10:00am 24.6 N 17 22 1004.1 - 0.0 - - - - - - -
31/09:30am 22.2 N 14 20 1004.6 - 0.0 - - - - - - -
31/09:00am 18.4 NNE 13 18 1005.0 - 0.0 - - - - - - -
31/08:30am 18.1 N 14 18 1005.6 - 0.0 - - - - - - -
31/08:00am 15.0 NNE 8 15 1005.8 - 0.0 - - - - - - -
31/07:30am 13.6 N 8 12 1006.2 - 0.0 - - - - - - -
31/07:00am 11.6 N 4 7 1005.9 - 0.0 - - - - - - -
31/06:30am 12.3 NNE 9 12 1005.8 - 0.0 - - - - - - -
31/06:00am 11.9 NNE 9 14 1006.3 - 0.0 - - - - - - -
31/05:30am 11.4 NE 4 6 1007.0 - 0.0 - - - - - - -
31/05:00am 11.2 NE 6 9 1007.3 - 0.0 - - - - - - -
31/04:30am 11.5 NE 5 6 1007.9 - 0.0 - - - - - - -
31/04:00am 11.2 ENE 8 11 1008.0 - 0.0 - - - - - - -
31/03:30am 11.4 NE 8 12 1008.8 - 0.0 - - - - - - -
31/03:00am 10.8 NE 6 8 1009.3 - 0.0 - - - - - - -
31/02:30am 10.5 ENE 5 7 1010.2 - 0.0 - - - - - - -
31/02:00am 9.9 ENE 4 6 1010.5 - 0.0 - - - - - - -
31/01:30am 8.9 ENE 4 6 1011.3 - 0.0 - - - - - - -
31/01:00am 7.8 NE 5 5 1012.0 - 0.0 - - - - - - -
31/12:30am 6.8 NE 3 4 1012.4 - 0.0 - - - - - - -
31/12:00am 8.2 CALM 0 0 1012.5 - 0.0 - - - - - - -
 
Date/Time
EDT
Temp

°C
Wind Pressure Rain
since 9am
mm
Weather Cloud Vis
km
Sea
Height
m
Swell
Dir
 
Speed
knots
Gust
knots
hPa Trend Height
m
Period
s
Dir
30/11:30pm 8.4 CALM 0 0 1012.8 - 0.0 - - - - - - -
30/11:00pm 8.1 S 1 3 1013.3 - 0.0 - - - - - - -
30/10:30pm 9.1 CALM 0 3 1013.5 - 0.0 - - - - - - -
30/10:00pm 9.5 CALM 0 0 1013.6 - 0.0 - - - - - - -
30/09:30pm 10.7 CALM 0 1 1013.7 - 0.0 - - - - - - -
30/09:00pm 11.2 SSW 2 3 1013.6 - 0.0 - - - - - - -
30/08:30pm 12.5 SSW 3 3 1013.8 - 0.0 - - - - - - -
30/08:00pm 14.1 SW 3 5 1013.5 - 0.0 - - - - - - -
30/07:30pm 15.4 SW 5 7 1013.3 - 0.0 - - - - - - -
30/07:00pm 16.1 NW 6 8 1013.5 - 0.0 - - - - - - -
30/06:30pm 16.4 NW 6 9 1013.2 - 0.0 - - - - - - -
30/06:00pm 16.8 NW 7 9 1013.5 - 0.0 - - - - - - -
30/05:30pm 16.8 NW 8 10 1013.6 - 0.0 - - - - - - -
30/05:00pm 17.1 NW 7 11 1013.8 - 0.0 - - - - - - -
30/04:30pm 17.7 WNW 6 11 1014.1 - 0.0 - - - - - - -
30/04:00pm 17.6 NW 7 11 1014.3 - 0.0 - - - - - - -
30/03:30pm 17.2 W 7 12 1014.7 - 0.0 - - - - - - -
30/03:00pm 17.9 W 9 14 1015.1 - 0.0 - - - - - - -
30/02:30pm 18.1 WNW 8 15 1015.5 - 0.0 - - - - - - -
30/02:00pm 17.3 NW 9 13 1015.4 - 0.0 - - - - - - -
30/01:30pm 17.4 NNW 9 13 1015.5 - 0.0 - - - - - - -
30/01:00pm 17.3 NW 8 11 1015.9 - 0.0 - - - - - - -
30/12:30pm 16.6 NW 8 11 1016.1 - 0.0 - - - - - - -
30/12:00pm 16.6 NW 6 9 1016.4 - 0.0 - - - - - - -
30/11:30am 16.2 W 4 8 1016.5 - 0.0 - - - - - - -
30/11:00am 15.6 W 5 6 1016.7 - 0.0 - - - - - - -
30/10:30am 15.5 W 5 9 1016.7 - 0.0 - - - - - - -
30/10:00am 15.2 W 5 8 1016.7 - 0.0 - - - - - - -
30/09:30am 15.4 WSW 7 11 1016.7 - 0.4 - - - - - - -
30/09:00am 14.9 WSW 6 9 1016.3 - 0.4 - - - - - - -
30/08:30am 14.6 W 6 10 1016.3 - 0.4 - - - - - - -
30/08:00am 14.2 W 4 7 1015.9 - 0.4 - - - - - - -
30/07:30am 13.7 W 2 3 1015.6 - 0.4 - - - - - - -
30/07:00am 13.4 W 1 2 1015.7 - 0.4 - - - - - - -
30/06:30am 13.2 W 2 4 1015.5 - 0.4 - - - - - - -
30/06:00am 13.0 W 2 3 1015.4 - 0.4 - - - - - - -
30/05:30am 12.8 W 3 4 1015.2 - 0.4 - - - - - - -
30/05:00am 12.7 W 3 4 1015.0 - 0.4 - - - - - - -
30/04:30am 11.8 WNW 2 3 1014.9 - 0.4 - - - - - - -
30/04:00am 12.3 W 3 5 1015.4 - 0.4 - - - - - - -
30/03:30am 10.0 W 2 4 1015.7 - 0.4 - - - - - - -
30/03:00am 9.0 CALM 0 0 1015.7 - 0.4 - - - - - - -
30/02:30am 7.5 CALM 0 0 1015.8 - 0.4 - - - - - - -
30/02:00am 6.0 CALM 0 0 1015.9 - 0.4 - - - - - - -
30/01:30am 6.5 CALM 0 0 1016.2 - 0.4 - - - - - - -
30/01:00am 7.7 CALM 0 0 1016.6 - 0.4 - - - - - - -
30/12:30am 9.3 CALM 0 0 1016.8 - 0.4 - - - - - - -
30/12:00am 8.7 CALM 0 0 1016.9 - 0.4 - - - - - - -
 
Date/Time
EDT
Temp

°C
Wind Pressure Rain
since 9am
mm
Weather Cloud Vis
km
Sea
Height
m
Swell
Dir
 
Speed
knots
Gust
knots
hPa Trend Height
m
Period
s
Dir
29/11:30pm 9.2 SSW 2 3 1017.1 - 0.4 - - - - - - -
29/11:00pm 11.3 SSW 1 2 1017.2 - 0.4 - - - - - - -
29/10:30pm 12.6 WSW 3 5 1017.6 - 0.4 - - - - - - -
29/10:00pm 12.9 SW 6 8 1017.5 - 0.4 - - - - - - -
29/09:30pm 13.0 SW 5 7 1017.4 - 0.4 - - - - - - -
29/09:00pm 13.1 SW 5 7 1017.2 - 0.4 - - - - - - -
29/08:30pm 13.7 SW 5 7 1017.1 - 0.4 - - - - - - -
29/08:00pm 14.0 SW 5 8 1017.3 - 0.4 - - - - - - -
29/07:30pm 14.4 SW 6 8 1017.2 - 0.4 - - - - - - -
29/07:00pm 14.9 W 6 9 1017.3 - 0.4 - - - - - - -
29/06:30pm 14.8 W 6 10 1017.4 - 0.4 - - - - - - -
29/06:00pm 14.9 W 6 9 1017.3 - 0.4 - - - - - - -
29/05:30pm 14.5 W 7 11 1017.3 - 0.4 - - - - - - -
29/05:00pm 14.0 W 9 14 1017.4 - 0.2 - - - - - - -
29/04:30pm 16.3 WNW 9 14 1017.3 - 0.0 - - - - - - -
29/04:00pm 16.2 NW 11 15 1017.4 - 0.0 - - - - - - -
29/03:30pm 14.9 WNW 11 16 1017.8 - 0.0 - - - - - - -
29/03:00pm 16.1 NW 12 18 1017.8 - 0.0 - - - - - - -
29/02:30pm 17.4 NW 12 18 1017.9 - 0.0 - - - - - - -
29/02:00pm 15.8 NW 12 20 1018.2 - 0.0 - - - - - - -
29/01:30pm 16.4 NW 13 19 1018.4 - 0.0 - - - - - - -
29/01:00pm 16.6 NNW 15 19 1018.5 - 0.0 - - - - - - -
29/12:30pm 16.7 NW 12 17 1018.6 - 0.0 - - - - - - -
29/12:00pm 14.7 NW 13 17 1019.0 - 0.0 - - - - - - -
29/11:30am 17.5 NW 11 15 1019.0 - 0.0 - - - - - - -
29/11:00am 16.6 NW 11 17 1019.1 - 0.0 - - - - - - -
29/10:30am 15.8 WNW 9 12 1019.2 - 0.0 - - - - - - -
29/10:00am 15.9 WNW 8 12 1019.1 - 0.0 - - - - - - -
29/09:30am 15.6 WNW 9 15 1019.1 - 0.0 - - - - - - -
29/09:00am 15.0 NW 8 11 1019.0 - 0.0 - - - - - - -
29/08:30am 14.7 W 7 9 1018.8 - 0.0 - - - - - - -
29/08:00am 14.4 W 5 9 1018.8 - 0.0 - - - - - - -
29/07:30am 14.1 W 5 8 1018.8 - 0.0 - - - - - - -
29/07:00am 13.7 W 5 7 1018.8 - 0.0 - - - - - - -
29/06:30am 13.6 W 6 9 1018.7 - 0.0 - - - - - - -
29/06:00am 13.4 W 6 10 1018.5 - 0.0 - - - - - - -
29/05:30am 13.0 W 5 7 1018.4 - 0.0 - - - - - - -
29/05:00am 13.2 W 5 8 1018.4 - 0.0 - - - - - - -
29/04:30am 13.7 W 5 9 1018.3 - 0.0 - - - - - - -
29/04:00am 13.7 W 4 8 1018.3 - 0.0 - - - - - - -
29/03:30am 13.6 WSW 4 7 1018.3 - 0.0 - - - - - - -
29/03:00am 13.4 WSW 5 7 1018.4 - 0.0 - - - - - - -

Other Formats:

Comma delimited format used in spreadsheet applications
http://www.bom.gov.au/fwo/IDV60701/IDV60701.95816.axf

JavaScript Object Notation format (JSON) in row-major order
http://www.bom.gov.au/fwo/IDV60701/IDV60701.95816.json